createdAt,value
2023-05-22T00:00:14.466Z,2.15
2023-05-22T00:02:44.371Z,2.90
2023-05-22T00:05:18.471Z,2.70
2023-05-22T00:07:47.361Z,2.88
2023-05-22T00:10:16.176Z,3.15
2023-05-22T00:12:44.969Z,3.28
2023-05-22T00:15:13.856Z,3.47
2023-05-22T00:17:44.571Z,3.60
2023-05-22T00:20:15.501Z,3.08
2023-05-22T00:22:45.076Z,2.92
2023-05-22T00:25:13.838Z,2.22
2023-05-22T00:27:42.544Z,2.50
2023-05-22T00:30:12.725Z,2.72
2023-05-22T00:32:41.789Z,2.28
2023-05-22T00:35:11.947Z,2.80
2023-05-22T00:37:42.051Z,3.45
2023-05-22T00:40:12.534Z,3.70
2023-05-22T00:42:41.298Z,3.72
2023-05-22T00:45:12.972Z,3.65
2023-05-22T00:47:41.927Z,2.75
2023-05-22T00:50:13.648Z,3.75
2023-05-22T00:52:47.667Z,3.30
2023-05-22T00:55:17.640Z,2.80
2023-05-22T00:57:47.542Z,3.00
2023-05-22T01:00:18.071Z,2.85
2023-05-22T01:02:48.073Z,2.53
2023-05-22T01:05:18.336Z,3.27
2023-05-22T01:07:48.880Z,2.40
2023-05-22T01:10:17.715Z,2.65
2023-05-22T01:13:04.434Z,2.55
2023-05-22T01:15:44.500Z,2.72
2023-05-22T01:18:26.509Z,3.00
2023-05-22T01:21:04.474Z,2.47
2023-05-22T01:24:44.279Z,2.33
2023-05-22T01:28:02.801Z,2.40
2023-05-22T01:30:55.037Z,2.13
2023-05-22T01:33:26.830Z,2.10
2023-05-22T01:36:00.926Z,2.60
2023-05-22T01:38:31.190Z,2.45
2023-05-22T01:41:02.156Z,1.92
2023-05-22T01:43:31.295Z,2.10
2023-05-22T01:46:02.318Z,2.30
2023-05-22T01:48:31.076Z,2.00
2023-05-22T01:51:08.938Z,1.65
2023-05-22T01:53:47.395Z,1.60
2023-05-22T01:56:30.686Z,1.63
2023-05-22T01:59:09.838Z,1.73
2023-05-22T02:01:41.319Z,2.03
2023-05-22T02:04:12.022Z,1.90
2023-05-22T02:06:43.002Z,2.03
2023-05-22T02:09:12.446Z,1.73
2023-05-22T02:11:43.685Z,2.57
2023-05-22T02:14:13.708Z,2.50
2023-05-22T02:16:47.954Z,2.53
2023-05-22T02:19:17.466Z,2.60
2023-05-22T02:22:09.970Z,3.00
2023-05-22T02:24:39.380Z,2.90
2023-05-22T02:27:08.171Z,2.20
2023-05-22T02:29:37.011Z,2.40
2023-05-22T02:32:08.567Z,1.85
2023-05-22T02:34:38.025Z,1.73
2023-05-22T02:37:07.387Z,2.17
2023-05-22T02:39:36.039Z,1.90
2023-05-22T02:42:06.820Z,1.52
2023-05-22T02:44:35.742Z,1.27
2023-05-22T02:47:04.616Z,1.25
2023-05-22T02:49:34.678Z,1.43
2023-05-22T02:52:03.523Z,1.30
2023-05-22T02:54:32.403Z,1.08
2023-05-22T02:57:01.247Z,1.13
2023-05-22T02:59:29.962Z,1.15
2023-05-22T03:01:58.811Z,1.03
2023-05-22T03:04:27.650Z,1.50
2023-05-22T03:06:57.769Z,1.33
2023-05-22T03:09:27.439Z,1.40
2023-05-22T03:11:56.306Z,1.15
2023-05-22T03:14:25.032Z,1.70
2023-05-22T03:16:54.779Z,1.27
2023-05-22T03:19:24.941Z,1.55
2023-05-22T03:21:54.487Z,1.40
2023-05-22T03:24:26.202Z,1.58
2023-05-22T03:26:54.994Z,2.40
2023-05-22T03:29:33.452Z,1.60
2023-05-22T03:32:03.574Z,1.35
2023-05-22T03:34:33.007Z,1.25
2023-05-22T03:37:02.982Z,1.40
2023-05-22T03:39:33.296Z,1.50
2023-05-22T03:42:18.843Z,1.20
2023-05-22T03:51:35.136Z,1.83
2023-05-22T03:54:04.139Z,1.58
2023-05-22T03:56:34.225Z,1.73
2023-05-22T03:59:04.518Z,1.70
2023-05-22T04:01:33.830Z,1.67
2023-05-22T04:04:02.507Z,1.92
2023-05-22T04:06:33.129Z,1.60
2023-05-22T04:09:02.694Z,2.10
2023-05-22T04:11:33.958Z,2.10
2023-05-22T04:14:05.434Z,1.90
2023-05-22T04:16:34.844Z,2.03
2023-05-22T04:19:05.908Z,1.85
2023-05-22T04:21:35.725Z,2.37
2023-05-22T04:24:07.428Z,2.28
2023-05-22T04:26:40.434Z,2.42
2023-05-22T04:29:10.686Z,2.35
2023-05-22T04:31:42.230Z,2.60
2023-05-22T04:34:13.323Z,2.17
2023-05-22T04:36:45.248Z,2.38
2023-05-22T04:39:17.855Z,2.88
2023-05-22T04:41:48.138Z,2.13
2023-05-22T04:44:18.044Z,2.65
2023-05-22T04:46:50.476Z,3.23
2023-05-22T04:49:26.991Z,2.40
2023-05-22T04:51:59.267Z,2.78
2023-05-22T04:54:31.610Z,3.10
2023-05-22T04:57:04.696Z,2.70
2023-05-22T04:59:39.328Z,2.23
2023-05-22T05:02:15.832Z,2.17
2023-05-22T05:04:47.692Z,2.70
2023-05-22T05:07:21.725Z,3.10
2023-05-22T05:09:52.776Z,2.80
2023-05-22T05:12:28.668Z,4.10
2023-05-22T05:15:09.865Z,5.25
2023-05-22T05:17:44.967Z,6.55
2023-05-22T05:20:20.408Z,5.93
2023-05-22T05:22:56.232Z,6.32
2023-05-22T05:25:31.659Z,6.50
2023-05-22T05:28:11.712Z,6.70
2023-05-22T05:30:46.244Z,7.00
2023-05-22T05:33:33.948Z,6.03
2023-05-22T05:36:24.956Z,6.70
2023-05-22T05:39:02.225Z,6.10
2023-05-22T05:41:35.390Z,6.55
2023-05-22T05:44:11.439Z,6.82
2023-05-22T05:46:47.058Z,6.55
2023-05-22T05:49:25.185Z,7.32
2023-05-22T05:51:56.787Z,6.80
2023-05-22T05:54:35.710Z,7.03
2023-05-22T05:57:14.862Z,6.90
2023-05-22T05:59:52.520Z,6.68
2023-05-22T06:02:48.841Z,7.20
2023-05-22T06:05:42.747Z,5.80
2023-05-22T06:08:27.280Z,5.72
2023-05-22T06:10:58.622Z,4.85
2023-05-22T06:13:53.550Z,5.15
2023-05-22T06:16:26.086Z,5.28
2023-05-22T06:18:57.523Z,4.93
2023-05-22T06:21:27.871Z,5.90
2023-05-22T06:24:00.738Z,5.95
2023-05-22T06:26:32.545Z,6.05
2023-05-22T06:29:02.335Z,5.90
2023-05-22T06:31:45.244Z,5.03
2023-05-22T06:34:16.640Z,4.80
2023-05-22T06:36:50.630Z,4.93
2023-05-22T06:39:25.754Z,4.88
2023-05-22T06:42:14.024Z,4.90
2023-05-22T06:45:06.398Z,4.67
2023-05-22T06:47:47.054Z,5.28
2023-05-22T06:50:19.554Z,5.63
2023-05-22T06:52:55.341Z,5.10
2023-05-22T06:55:30.127Z,3.72
2023-05-22T06:58:15.821Z,3.37
2023-05-22T07:00:48.895Z,3.63
2023-05-22T07:03:27.890Z,3.75
2023-05-22T07:06:25.766Z,3.70
2023-05-22T07:08:55.650Z,3.80
2023-05-22T07:11:25.388Z,3.70
2023-05-22T07:13:56.647Z,3.38
2023-05-22T07:16:30.747Z,3.80
2023-05-22T07:19:12.778Z,3.92
2023-05-22T07:21:46.979Z,3.53
2023-05-22T07:24:21.570Z,3.57
2023-05-22T07:26:52.478Z,4.03
2023-05-22T07:29:24.376Z,3.38
2023-05-22T07:31:59.836Z,3.53
2023-05-22T07:34:34.459Z,2.92
2023-05-22T07:37:11.561Z,3.10
2023-05-22T07:39:48.842Z,3.30
2023-05-22T07:42:39.962Z,3.20
2023-05-22T07:45:20.681Z,3.10
2023-05-22T07:51:36.079Z,3.40
2023-05-22T07:54:50.258Z,3.05
2023-05-22T07:57:53.203Z,3.90
2023-05-22T08:00:52.618Z,3.63
2023-05-22T08:03:39.033Z,3.40
2023-05-22T08:06:21.931Z,3.87
2023-05-22T08:08:55.813Z,3.90
2023-05-22T08:11:46.920Z,3.60
2023-05-22T08:14:35.742Z,3.80
2023-05-22T08:17:09.924Z,3.13
2023-05-22T08:19:46.460Z,3.60
2023-05-22T08:22:34.451Z,3.45
2023-05-22T08:25:10.644Z,3.38
2023-05-22T08:27:43.843Z,3.78
2023-05-22T08:30:29.290Z,3.65
2023-05-22T08:32:59.097Z,4.03
2023-05-22T08:35:27.956Z,4.25
2023-05-22T08:37:58.320Z,4.13
2023-05-22T08:40:38.346Z,3.88
2023-05-22T08:43:11.065Z,3.72
2023-05-22T08:45:42.662Z,3.37
2023-05-22T08:48:22.317Z,3.00
2023-05-22T08:51:02.564Z,3.58
2023-05-22T08:53:37.501Z,3.97
2023-05-22T08:56:09.056Z,3.80
2023-05-22T08:58:39.942Z,4.30
2023-05-22T09:01:15.289Z,3.78
2023-05-22T09:03:49.911Z,4.00
2023-05-22T09:06:21.401Z,3.60
2023-05-22T09:08:53.417Z,4.05
2023-05-22T09:11:23.701Z,3.40
2023-05-22T09:13:52.669Z,3.47
2023-05-22T09:16:21.664Z,3.80
2023-05-22T09:18:50.882Z,3.22
2023-05-22T09:21:29.654Z,3.92
2023-05-22T09:24:03.628Z,3.60
2023-05-22T09:26:33.048Z,3.40
2023-05-22T09:29:03.082Z,3.80
2023-05-22T09:31:32.184Z,3.75
2023-05-22T09:34:01.299Z,3.95
2023-05-22T09:36:33.667Z,3.53
2023-05-22T09:39:05.459Z,3.00
2023-05-22T09:41:37.957Z,4.18
2023-05-22T09:44:34.467Z,4.38
2023-05-22T09:47:06.779Z,3.72
2023-05-22T09:49:42.096Z,3.33
2023-05-22T09:52:13.197Z,3.42
2023-05-22T09:54:53.977Z,3.50
2023-05-22T09:57:25.693Z,4.15
2023-05-22T09:59:58.568Z,3.97
2023-05-22T10:02:29.509Z,3.07
2023-05-22T10:04:59.802Z,3.63
2023-05-22T10:07:35.714Z,4.43
2023-05-22T10:10:10.154Z,4.53
2023-05-22T10:12:46.672Z,3.70
2023-05-22T10:15:16.641Z,3.97
2023-05-22T10:17:46.775Z,4.20
2023-05-22T10:20:18.334Z,4.05
2023-05-22T10:22:50.149Z,3.88
2023-05-22T10:25:21.928Z,3.42
2023-05-22T10:27:54.217Z,3.60
2023-05-22T10:30:33.900Z,3.53
2023-05-22T10:33:38.042Z,3.25
2023-05-22T10:36:15.321Z,3.20
2023-05-22T10:39:05.564Z,3.38
2023-05-22T10:41:36.665Z,3.30
2023-05-22T10:44:05.570Z,3.95
2023-05-22T10:46:35.276Z,3.88
2023-05-22T10:49:04.253Z,3.72
2023-05-22T10:51:35.047Z,2.40
2023-05-22T10:54:05.643Z,2.43
2023-05-22T10:56:37.227Z,2.17
2023-05-22T10:59:08.359Z,3.20
2023-05-22T11:01:38.571Z,3.63
2023-05-22T11:04:15.992Z,4.13
2023-05-22T11:07:03.335Z,4.07
2023-05-22T11:09:34.050Z,3.08
2023-05-22T11:12:39.547Z,3.00
2023-05-22T11:15:18.916Z,3.28
2023-05-22T11:20:40.938Z,4.33
2023-05-22T11:23:11.848Z,4.43
2023-05-22T11:25:46.272Z,3.20
2023-05-22T11:28:17.336Z,4.00
2023-05-22T11:30:46.930Z,4.10
2023-05-22T11:33:16.705Z,3.07
2023-05-22T11:35:49.288Z,3.70
2023-05-22T11:38:21.606Z,3.50
2023-05-22T11:40:53.738Z,2.92
2023-05-22T11:43:37.059Z,3.05
2023-05-22T11:46:10.644Z,3.67
2023-05-22T11:48:43.358Z,4.10
2023-05-22T11:51:12.470Z,3.80
2023-05-22T11:53:43.491Z,3.92
2023-05-22T11:56:12.351Z,3.42
2023-05-22T11:58:42.699Z,3.77
2023-05-22T12:01:11.714Z,2.85
2023-05-22T12:03:44.340Z,2.47
2023-05-22T12:06:17.153Z,2.85
2023-05-22T12:08:47.297Z,2.65
2023-05-22T12:11:19.397Z,2.57
2023-05-22T12:14:02.963Z,3.65
2023-05-22T12:16:37.690Z,3.58
2023-05-22T12:19:09.027Z,4.05
2023-05-22T12:21:39.459Z,3.05
2023-05-22T12:24:09.424Z,3.20
2023-05-22T12:26:38.826Z,3.63
2023-05-22T12:29:09.891Z,3.92
2023-05-22T12:31:39.982Z,3.25
2023-05-22T12:34:09.336Z,1.83
2023-05-22T12:36:42.306Z,1.23
2023-05-22T12:39:13.373Z,1.08
2023-05-22T12:41:42.199Z,2.17
2023-05-22T12:44:12.886Z,1.23
2023-05-22T12:46:42.991Z,1.30
2023-05-22T12:49:14.285Z,1.50
2023-05-22T12:51:43.269Z,1.90
2023-05-22T12:57:08.392Z,1.58
2023-05-22T12:59:39.584Z,2.08
2023-05-22T13:02:14.242Z,2.07
2023-05-22T13:04:44.297Z,2.03
2023-05-22T13:07:24.503Z,2.80
2023-05-22T13:10:08.420Z,2.78
2023-05-22T13:12:47.305Z,3.08
2023-05-22T13:15:21.123Z,3.50
2023-05-22T13:17:52.938Z,3.15
2023-05-22T13:20:29.294Z,2.90
2023-05-22T13:23:03.452Z,2.70
2023-05-22T13:25:38.829Z,2.45
2023-05-22T13:28:11.110Z,2.80
2023-05-22T13:30:47.263Z,2.58
2023-05-22T13:33:24.311Z,2.58
2023-05-22T13:35:53.566Z,4.13
2023-05-22T13:38:23.594Z,4.00
2023-05-22T13:40:54.421Z,3.80
2023-05-22T13:43:33.301Z,3.53
2023-05-22T13:46:04.561Z,3.92
2023-05-22T13:48:33.633Z,3.72
2023-05-22T13:51:07.143Z,3.25
2023-05-22T13:53:38.854Z,3.00
2023-05-22T13:56:18.652Z,4.25
2023-05-22T13:58:55.056Z,4.25
2023-05-22T14:01:25.625Z,4.40
2023-05-22T14:03:57.488Z,4.28
2023-05-22T14:06:31.128Z,4.50
2023-05-22T14:09:02.039Z,4.22
2023-05-22T14:11:35.452Z,4.30
2023-05-22T14:14:19.746Z,3.60
2023-05-22T14:16:59.904Z,3.92
2023-05-22T14:19:40.044Z,4.20
2023-05-22T14:22:13.058Z,4.28
2023-05-22T14:24:46.197Z,5.20
2023-05-22T14:27:16.360Z,4.30
2023-05-22T14:29:48.600Z,3.63
2023-05-22T14:32:26.725Z,4.30
2023-05-22T14:34:55.595Z,4.00
2023-05-22T14:37:25.430Z,4.75
2023-05-22T14:39:55.854Z,6.35
2023-05-22T14:42:27.644Z,5.43
2023-05-22T14:44:59.164Z,8.13
2023-05-22T14:47:32.458Z,6.60
2023-05-22T14:50:17.499Z,3.15
2023-05-22T14:52:50.484Z,2.63
2023-05-22T14:55:33.507Z,2.45
2023-05-22T14:58:02.416Z,3.40
2023-05-22T15:00:51.550Z,3.03
2023-05-22T15:03:21.679Z,3.78
2023-05-22T15:05:51.016Z,3.83
2023-05-22T15:08:21.007Z,3.00
2023-05-22T15:10:49.802Z,2.53
2023-05-22T15:13:18.713Z,2.55
2023-05-22T15:15:48.800Z,3.28
2023-05-22T15:18:20.056Z,3.33
2023-05-22T15:20:50.543Z,2.50
2023-05-22T15:23:19.306Z,2.43
2023-05-22T15:25:48.493Z,2.97
2023-05-22T15:28:17.270Z,3.03
2023-05-22T15:30:46.219Z,2.83
2023-05-22T15:33:15.174Z,2.85
2023-05-22T15:35:46.725Z,2.60
2023-05-22T15:38:17.434Z,2.47
2023-05-22T15:40:46.369Z,2.70
2023-05-22T15:43:15.099Z,2.67
2023-05-22T15:45:48.728Z,3.15
2023-05-22T15:48:18.001Z,3.00
2023-05-22T15:50:46.883Z,3.10
2023-05-22T15:58:57.716Z,3.20
2023-05-22T16:01:26.775Z,3.50
2023-05-22T16:03:55.595Z,3.07
2023-05-22T16:06:25.418Z,3.67
2023-05-22T16:08:54.164Z,3.50
2023-05-22T16:11:24.649Z,3.42
2023-05-22T16:13:53.827Z,4.03
2023-05-22T16:16:24.255Z,3.37
2023-05-22T16:18:53.499Z,3.42
2023-05-22T16:21:28.350Z,3.80
2023-05-22T16:23:59.601Z,2.95
2023-05-22T16:26:33.594Z,3.13
2023-05-22T16:29:04.875Z,3.93
2023-05-22T16:31:40.294Z,3.40
2023-05-22T16:34:10.250Z,3.83
2023-05-22T16:36:45.971Z,3.90
2023-05-22T16:39:16.842Z,3.22
2023-05-22T16:41:46.930Z,3.50
2023-05-22T16:44:17.179Z,3.20
2023-05-22T16:46:52.738Z,3.33
2023-05-22T16:49:27.697Z,3.63
2023-05-22T16:52:01.673Z,3.05
2023-05-22T16:54:30.917Z,3.47
2023-05-22T16:57:00.492Z,3.33
2023-05-22T16:59:33.704Z,3.47
2023-05-22T17:02:13.971Z,3.53
2023-05-22T17:04:46.743Z,2.83
2023-05-22T17:07:20.350Z,3.03
2023-05-22T17:09:57.062Z,3.20
2023-05-22T17:12:33.296Z,2.88
2023-05-22T17:15:03.465Z,2.65
2023-05-22T17:17:54.828Z,2.58
2023-05-22T17:20:24.323Z,2.23
2023-05-22T17:22:56.859Z,2.40
2023-05-22T17:25:25.756Z,2.30
2023-05-22T17:27:55.345Z,2.30
2023-05-22T17:30:29.915Z,2.40
2023-05-22T17:33:00.368Z,2.10
2023-05-22T17:35:29.203Z,2.15
2023-05-22T17:37:59.782Z,2.72
2023-05-22T17:40:43.312Z,2.50
2023-05-22T17:43:16.247Z,2.45
2023-05-22T17:45:51.508Z,2.40
2023-05-22T17:48:30.848Z,2.58
2023-05-22T17:51:08.193Z,2.10
2023-05-22T17:53:39.483Z,2.70
2023-05-22T17:56:10.831Z,2.75
2023-05-22T17:58:41.017Z,2.93
2023-05-22T18:01:09.875Z,2.95
2023-05-22T18:03:42.861Z,3.25
2023-05-22T18:06:15.484Z,1.35
2023-05-22T18:08:49.073Z,1.30
2023-05-22T18:11:19.954Z,1.40
2023-05-22T18:13:49.442Z,1.10
2023-05-22T18:16:19.761Z,1.17
2023-05-22T18:18:51.002Z,1.15
2023-05-22T18:21:21.268Z,1.42
2023-05-22T18:23:55.093Z,1.70
2023-05-22T18:26:30.445Z,1.20
2023-05-22T18:29:02.448Z,1.10
2023-05-22T18:35:44.354Z,1.42
2023-05-22T18:38:13.154Z,1.50
2023-05-22T18:40:42.412Z,1.20
2023-05-22T18:43:13.667Z,0.80
2023-05-22T18:45:42.860Z,1.15
2023-05-22T18:48:11.797Z,1.60
2023-05-22T18:50:41.075Z,1.43
2023-05-22T18:53:16.163Z,1.27
2023-05-22T18:55:45.714Z,1.90
2023-05-22T18:58:14.556Z,2.13
2023-05-22T19:00:45.301Z,1.73
2023-05-22T19:03:14.770Z,2.00
2023-05-22T19:05:45.412Z,2.17
2023-05-22T19:08:16.307Z,1.60
2023-05-22T19:10:47.857Z,1.95
2023-05-22T19:13:16.695Z,2.08
2023-05-22T19:15:45.621Z,1.83
2023-05-22T19:18:14.578Z,2.05
2023-05-22T19:20:43.877Z,2.03
2023-05-22T19:23:14.300Z,2.03
2023-05-22T19:25:50.951Z,2.00
2023-05-22T19:28:19.770Z,2.43
2023-05-22T19:31:00.667Z,2.30
2023-05-22T19:33:33.873Z,2.33
2023-05-22T19:36:06.744Z,2.67
2023-05-22T19:38:40.718Z,2.78
2023-05-22T19:41:31.552Z,2.77
2023-05-22T19:44:00.443Z,2.80
2023-05-22T19:46:29.287Z,2.97
2023-05-22T19:48:59.939Z,3.10
2023-05-22T19:51:29.658Z,3.00
2023-05-22T19:54:02.258Z,3.33
2023-05-22T19:56:31.749Z,3.40
2023-05-22T19:59:02.929Z,3.42
2023-05-22T20:01:32.064Z,4.03
2023-05-22T20:04:03.052Z,3.75
2023-05-22T20:06:33.644Z,4.33
2023-05-22T20:09:06.077Z,4.43
2023-05-22T20:11:36.887Z,4.80
2023-05-22T20:14:07.718Z,6.18
2023-05-22T20:16:40.164Z,7.53
2023-05-22T20:19:10.466Z,8.27
2023-05-22T20:21:39.468Z,9.82
2023-05-22T20:24:19.954Z,14.15
2023-05-22T20:27:03.897Z,17.63
2023-05-22T20:29:38.012Z,19.83
2023-05-22T20:32:08.853Z,23.57
2023-05-22T20:34:40.845Z,23.30
2023-05-22T20:37:10.203Z,22.70
2023-05-22T20:39:41.789Z,21.95
2023-05-22T20:42:13.242Z,22.15
2023-05-22T20:44:42.142Z,22.53
2023-05-22T20:47:10.928Z,25.63
2023-05-22T20:49:40.534Z,26.88
2023-05-22T20:52:10.209Z,26.58
2023-05-22T20:54:41.650Z,28.45
2023-05-22T20:57:10.573Z,27.03
2023-05-22T20:59:39.472Z,26.83
2023-05-22T21:02:09.490Z,26.92
2023-05-22T21:04:38.590Z,24.20
2023-05-22T21:07:08.829Z,23.20
2023-05-22T21:09:40.769Z,20.27
2023-05-22T21:12:10.285Z,20.58
2023-05-22T21:14:39.084Z,19.00
2023-05-22T21:17:08.082Z,15.55
2023-05-22T21:19:36.987Z,14.55
2023-05-22T21:22:08.568Z,11.37
2023-05-22T21:24:37.418Z,10.05
2023-05-22T21:27:07.678Z,9.15
2023-05-22T21:29:36.719Z,8.82
2023-05-22T21:32:06.528Z,7.80
2023-05-22T21:34:35.453Z,8.90
2023-05-22T21:37:04.205Z,7.60
2023-05-22T21:39:32.967Z,8.77
2023-05-22T21:42:01.825Z,8.55
2023-05-22T21:44:32.067Z,8.63
2023-05-22T21:47:01.227Z,8.30
2023-05-22T21:49:30.016Z,8.18
2023-05-22T21:51:58.668Z,7.57
2023-05-22T21:54:27.416Z,6.85
2023-05-22T21:56:56.205Z,7.22
2023-05-22T21:59:24.990Z,6.90
2023-05-22T22:01:55.361Z,5.78
2023-05-22T22:04:24.449Z,7.57
2023-05-22T22:06:53.431Z,7.15
2023-05-22T22:09:22.200Z,7.00
2023-05-22T22:11:50.936Z,7.17
2023-05-22T22:14:19.729Z,7.38
2023-05-22T22:16:48.594Z,7.05
2023-05-22T22:19:18.795Z,6.57
2023-05-22T22:21:47.723Z,7.65
2023-05-22T22:24:16.603Z,7.20
2023-05-22T22:26:47.966Z,6.72
2023-05-22T22:29:17.531Z,6.38
2023-05-22T22:31:46.467Z,7.22
2023-05-22T22:34:15.300Z,6.65
2023-05-22T22:36:45.656Z,7.33
2023-05-22T22:39:14.546Z,6.93
2023-05-22T22:41:44.445Z,6.70
2023-05-22T22:44:13.233Z,6.78
2023-05-22T22:46:42.755Z,7.30
2023-05-22T22:49:11.684Z,7.00
2023-05-22T22:51:40.440Z,7.20
2023-05-22T22:54:10.792Z,7.38
2023-05-22T22:56:39.671Z,7.50
2023-05-22T22:59:08.525Z,8.10
2023-05-22T23:01:37.293Z,7.67
2023-05-22T23:04:06.292Z,7.65
2023-05-22T23:06:35.047Z,7.88
2023-05-22T23:09:04.247Z,7.30
2023-05-22T23:11:37.739Z,8.40
2023-05-22T23:14:08.354Z,8.40
2023-05-22T23:16:37.829Z,7.15
2023-05-22T23:19:07.258Z,7.72
2023-05-22T23:21:37.018Z,7.32
2023-05-22T23:24:07.142Z,7.78
2023-05-22T23:26:37.298Z,7.67
2023-05-22T23:29:06.578Z,8.07
2023-05-22T23:31:36.777Z,7.32
2023-05-22T23:34:05.645Z,7.10
2023-05-22T23:36:34.468Z,7.60
2023-05-22T23:39:03.242Z,7.47
2023-05-22T23:41:31.925Z,7.00
2023-05-22T23:44:02.169Z,7.35
2023-05-22T23:46:31.169Z,6.90
2023-05-22T23:48:59.894Z,7.38
2023-05-22T23:51:28.598Z,7.53
2023-05-22T23:53:57.323Z,7.38
2023-05-22T23:56:26.559Z,8.35
2023-05-22T23:58:55.378Z,8.98
